createdAt,value
2023-05-09T00:01:46.416Z,100898.97
2023-05-09T00:03:51.530Z,100896.34
2023-05-09T00:05:56.191Z,100894.59
2023-05-09T00:07:58.802Z,100902.50
2023-05-09T00:10:01.650Z,100895.47
2023-05-09T00:12:05.120Z,100891.13
2023-05-09T00:14:08.820Z,100887.63
2023-05-09T00:16:11.785Z,100887.63
2023-05-09T00:18:15.195Z,100888.50
2023-05-09T00:20:18.161Z,100892.88
2023-05-09T00:22:22.539Z,100885.00
2023-05-09T00:24:25.445Z,100874.53
2023-05-09T00:26:28.423Z,100880.63
2023-05-09T00:28:31.219Z,100884.13
2023-05-09T00:30:34.029Z,100877.16
2023-05-09T00:32:37.119Z,100873.66
2023-05-09T00:34:40.004Z,100869.28
2023-05-09T00:36:42.998Z,100876.25
2023-05-09T00:38:47.356Z,100878.00
2023-05-09T00:40:50.470Z,100884.97
2023-05-09T00:42:53.396Z,100871.88
2023-05-09T00:44:56.178Z,100876.25
2023-05-09T00:46:59.186Z,100866.63
2023-05-09T00:49:02.053Z,100864.00
2023-05-09T00:51:05.159Z,100859.63
2023-05-09T00:53:08.372Z,100858.78
2023-05-09T00:55:13.216Z,100857.03
2023-05-09T00:57:16.348Z,100857.03
2023-05-09T00:59:19.246Z,100849.16
2023-05-09T01:01:22.410Z,100852.66
2023-05-09T01:03:25.344Z,100859.66
2023-05-09T01:05:35.946Z,100857.88
2023-05-09T01:07:45.106Z,100854.41
2023-05-09T01:09:56.410Z,100854.41
2023-05-09T01:12:10.467Z,100858.75
2023-05-09T01:14:22.858Z,100854.41
2023-05-09T01:16:33.200Z,100851.78
2023-05-09T01:18:46.807Z,100854.41
2023-05-09T01:20:58.531Z,100840.44
2023-05-09T01:23:19.743Z,100836.91
2023-05-09T01:25:45.685Z,100842.16
2023-05-09T01:27:58.652Z,100829.06
2023-05-09T01:30:04.330Z,100823.81
2023-05-09T01:32:10.804Z,100827.31
2023-05-09T01:34:18.474Z,100820.31
2023-05-09T01:36:22.609Z,100820.31
2023-05-09T01:38:26.809Z,100821.22
2023-05-09T01:40:33.592Z,100816.84
2023-05-09T01:42:42.065Z,100818.59
2023-05-09T01:44:47.528Z,100828.16
2023-05-09T01:46:55.031Z,100827.31
2023-05-09T01:48:58.918Z,100825.56
2023-05-09T01:51:03.794Z,100831.66
2023-05-09T01:53:07.658Z,100828.16
2023-05-09T01:55:12.220Z,100826.41
2023-05-09T01:57:16.039Z,100820.31
2023-05-09T01:59:20.440Z,100820.31
2023-05-09T02:01:24.934Z,100810.69
2023-05-09T02:03:29.950Z,100812.47
2023-05-09T02:05:33.386Z,100808.94
2023-05-09T02:07:37.835Z,100813.31
2023-05-09T02:09:40.705Z,100811.56
2023-05-09T02:11:43.692Z,100815.06
2023-05-09T02:13:46.455Z,100814.19
2023-05-09T02:15:49.376Z,100805.47
2023-05-09T02:17:53.085Z,100813.31
2023-05-09T02:19:57.283Z,100808.94
2023-05-09T02:22:00.485Z,100818.56
2023-05-09T02:24:03.578Z,100817.69
2023-05-09T02:26:07.044Z,100818.56
2023-05-09T02:28:10.992Z,100815.03
2023-05-09T02:30:20.565Z,100820.28
2023-05-09T02:32:28.152Z,100816.78
2023-05-09T02:34:31.096Z,100822.03
2023-05-09T02:36:35.957Z,100815.94
2023-05-09T02:38:38.886Z,100819.41
2023-05-09T02:40:43.703Z,100809.78
2023-05-09T02:42:46.491Z,100810.69
2023-05-09T02:44:49.398Z,100811.56
2023-05-09T02:46:52.177Z,100805.47
2023-05-09T02:48:54.969Z,100799.31
2023-05-09T02:50:58.324Z,100805.41
2023-05-09T02:53:02.508Z,100801.06
2023-05-09T02:55:07.329Z,100799.31
2023-05-09T02:57:13.378Z,100796.69
2023-05-09T02:59:16.308Z,100801.06
2023-05-09T03:01:19.329Z,100799.31
2023-05-09T03:03:23.320Z,100790.63
2023-05-09T03:05:26.836Z,100800.22
2023-05-09T03:07:29.803Z,100800.22
2023-05-09T03:09:34.057Z,100790.63
2023-05-09T03:11:37.636Z,100784.53
2023-05-09T03:13:40.505Z,100785.38
2023-05-09T03:15:43.387Z,100782.78
2023-05-09T03:17:48.325Z,100781.03
2023-05-09T03:19:51.163Z,100782.78
2023-05-09T03:21:54.078Z,100785.41
2023-05-09T03:23:57.030Z,100776.66
2023-05-09T03:26:01.160Z,100779.28
2023-05-09T03:28:05.046Z,100774.94
2023-05-09T03:30:08.977Z,100768.84
2023-05-09T03:32:13.894Z,100766.22
2023-05-09T03:34:17.834Z,100757.47
2023-05-09T03:36:21.219Z,100769.69
2023-05-09T03:38:24.635Z,100764.47
2023-05-09T03:40:27.612Z,100767.94
2023-05-09T03:42:42.115Z,100760.97
2023-05-09T03:44:44.940Z,100767.09
2023-05-09T03:46:47.764Z,100764.47
2023-05-09T03:48:51.060Z,100767.97
2023-05-09T03:50:54.070Z,100767.97
2023-05-09T03:52:58.232Z,100765.34
2023-05-09T03:55:01.147Z,100759.22
2023-05-09T03:57:07.031Z,100752.25
2023-05-09T03:59:11.663Z,100755.72
2023-05-09T04:01:15.356Z,100749.63
2023-05-09T04:03:18.420Z,100754.00
2023-05-09T04:05:23.379Z,100765.34
2023-05-09T04:07:28.325Z,100762.72
2023-05-09T04:09:31.426Z,100763.56
2023-05-09T04:11:34.319Z,100765.31
2023-05-09T04:13:37.573Z,100760.94
2023-05-09T04:15:49.581Z,100755.75
2023-05-09T04:17:52.409Z,100749.59
2023-05-09T04:19:55.422Z,100761.84
2023-05-09T04:21:58.347Z,100762.69
2023-05-09T04:24:01.235Z,100764.44
2023-05-09T04:26:12.442Z,100755.72
2023-05-09T04:28:15.513Z,100755.72
2023-05-09T04:30:18.574Z,100762.72
2023-05-09T04:32:24.203Z,100766.19
2023-05-09T04:34:27.745Z,100766.19
2023-05-09T04:36:33.783Z,100759.19
2023-05-09T04:38:36.676Z,100760.06
2023-05-09T04:40:42.740Z,100764.44
2023-05-09T04:42:45.768Z,100760.03
2023-05-09T04:44:49.354Z,100759.16
2023-05-09T04:46:52.509Z,100755.69
2023-05-09T04:48:56.713Z,100743.44
2023-05-09T04:50:59.519Z,100736.47
2023-05-09T04:53:02.247Z,100747.81
2023-05-09T04:55:06.295Z,100743.44
2023-05-09T04:57:18.509Z,100746.94
2023-05-09T04:59:27.192Z,100742.56
2023-05-09T05:01:30.880Z,100739.94
2023-05-09T05:03:34.537Z,100733.84
2023-05-09T05:05:40.587Z,100738.19
2023-05-09T05:07:43.550Z,100737.31
2023-05-09T05:09:48.986Z,100730.34
2023-05-09T05:12:00.756Z,100728.59
2023-05-09T05:14:05.911Z,100727.69
2023-05-09T05:16:09.138Z,100723.28
2023-05-09T05:18:12.105Z,100723.28
2023-05-09T05:20:14.977Z,100725.91
2023-05-09T05:22:22.974Z,100722.41
2023-05-09T05:24:25.971Z,100722.41
2023-05-09T05:26:29.272Z,100724.13
2023-05-09T05:28:32.385Z,100712.75
2023-05-09T05:30:35.277Z,100717.09
2023-05-09T05:32:38.648Z,100711.88
2023-05-09T05:34:41.658Z,100714.47
2023-05-09T05:36:44.521Z,100715.31
2023-05-09T05:38:49.292Z,100713.59
2023-05-09T05:40:52.049Z,100708.34
2023-05-09T05:42:55.896Z,100721.44
2023-05-09T05:45:04.161Z,100724.06
2023-05-09T05:47:08.804Z,100725.78
2023-05-09T05:49:11.638Z,100720.53
2023-05-09T05:51:14.470Z,100713.50
2023-05-09T05:53:18.104Z,100722.25
2023-05-09T05:55:22.486Z,100718.75
2023-05-09T05:57:25.457Z,100721.41
2023-05-09T05:59:28.750Z,100714.41
2023-05-09T06:01:31.721Z,100722.25
2023-05-09T06:03:34.762Z,100722.19
2023-05-09T06:05:43.374Z,100715.16
2023-05-09T06:07:47.290Z,100714.28
2023-05-09T06:09:50.141Z,100723.03
2023-05-09T06:11:55.125Z,100715.16
2023-05-09T06:13:57.930Z,100709.03
2023-05-09T06:16:15.096Z,100706.34
2023-05-09T06:18:23.833Z,100708.16
2023-05-09T06:20:27.301Z,100713.38
2023-05-09T06:22:30.133Z,100708.94
2023-05-09T06:24:36.186Z,100715.97
2023-05-09T06:26:40.493Z,100705.47
2023-05-09T06:28:44.632Z,100706.34
2023-05-09T06:30:47.434Z,100698.44
2023-05-09T06:32:51.942Z,100693.19
2023-05-09T06:34:54.944Z,100701.09
2023-05-09T06:36:57.833Z,100701.09
2023-05-09T06:39:00.836Z,100697.63
2023-05-09T06:41:03.689Z,100696.69
2023-05-09T06:43:06.510Z,100694.00
2023-05-09T06:45:12.049Z,100696.56
2023-05-09T06:47:14.950Z,100690.41
2023-05-09T06:49:17.733Z,100684.28
2023-05-09T06:51:20.657Z,100683.47
2023-05-09T06:53:23.488Z,100685.16
2023-05-09T06:55:26.521Z,100669.47
2023-05-09T06:57:29.468Z,100674.75
2023-05-09T06:59:32.989Z,100668.63
2023-05-09T07:01:37.413Z,100663.34
2023-05-09T07:03:40.292Z,100670.34
2023-05-09T07:05:43.294Z,100671.16
2023-05-09T07:07:46.047Z,100671.22
2023-05-09T07:09:50.836Z,100674.72
2023-05-09T07:11:56.305Z,100670.31
2023-05-09T07:13:59.104Z,100661.47
2023-05-09T07:16:01.956Z,100665.84
2023-05-09T07:18:06.238Z,100662.28
2023-05-09T07:20:09.901Z,100658.69
2023-05-09T07:22:13.289Z,100649.88
2023-05-09T07:24:16.367Z,100642.81
2023-05-09T07:26:19.163Z,100644.38
2023-05-09T07:28:21.875Z,100650.47
2023-05-09T07:30:24.962Z,100642.38
2023-05-09T07:32:28.818Z,100633.53
2023-05-09T07:34:33.085Z,100636.06
2023-05-09T07:38:41.403Z,100634.28
2023-05-09T07:40:44.209Z,100628.28
2023-05-09T07:42:49.918Z,100620.41
2023-05-09T07:44:52.932Z,100620.44
2023-05-09T07:46:55.969Z,100613.38
2023-05-09T07:48:58.737Z,100609.13
2023-05-09T07:51:02.938Z,100613.56
2023-05-09T07:53:05.700Z,100615.34
2023-05-09T07:55:09.125Z,100609.13
2023-05-09T07:57:12.177Z,100616.13
2023-05-09T07:59:15.052Z,100609.91
2023-05-09T08:01:17.807Z,100604.53
2023-05-09T08:03:20.870Z,100604.38
2023-05-09T08:05:23.861Z,100599.94
2023-05-09T08:07:28.295Z,100584.75
2023-05-09T08:09:31.090Z,100582.81
2023-05-09T08:11:35.044Z,100576.72
2023-05-09T08:13:37.984Z,100574.03
2023-05-09T08:15:40.901Z,100570.56
2023-05-09T08:17:43.714Z,100573.97
2023-05-09T08:19:46.600Z,100571.47
2023-05-09T08:21:49.466Z,100560.72
2023-05-09T08:23:53.607Z,100567.13
2023-05-09T08:25:56.518Z,100558.53
2023-05-09T08:27:59.376Z,100570.66
2023-05-09T08:30:02.107Z,100570.75
2023-05-09T08:32:05.426Z,100565.53
2023-05-09T08:34:08.192Z,100560.94
2023-05-09T08:36:11.085Z,100562.81
2023-05-09T08:38:13.845Z,100558.41
2023-05-09T08:40:18.389Z,100560.16
2023-05-09T08:42:24.798Z,100558.41
2023-05-09T08:44:30.910Z,100553.16
2023-05-09T08:46:39.834Z,100555.78
2023-05-09T08:48:44.258Z,100546.88
2023-05-09T08:50:47.970Z,100551.19
2023-05-09T08:52:53.339Z,100548.56
2023-05-09T08:54:56.293Z,100548.41
2023-05-09T08:57:02.537Z,100544.75
2023-05-09T08:59:05.547Z,100536.94
2023-05-09T09:01:08.843Z,100536.78
2023-05-09T09:03:11.769Z,100531.41
2023-05-09T09:05:34.205Z,100533.22
2023-05-09T09:07:39.312Z,100541.97
2023-05-09T09:09:46.305Z,100537.59
2023-05-09T09:11:49.733Z,100541.09
2023-05-09T09:13:55.145Z,100531.53
2023-05-09T09:16:00.832Z,100527.19
2023-05-09T09:18:08.976Z,100534.22
2023-05-09T09:20:15.609Z,100527.13
2023-05-09T09:22:20.792Z,100520.88
2023-05-09T09:24:24.158Z,100512.91
2023-05-09T09:26:29.217Z,100511.19
2023-05-09T09:28:32.538Z,100501.47
2023-05-09T09:30:36.709Z,100504.94
2023-05-09T09:32:40.512Z,100502.25
2023-05-09T09:34:43.332Z,100504.00
2023-05-09T09:36:46.860Z,100500.69
2023-05-09T09:38:49.891Z,100498.84
2023-05-09T09:40:56.572Z,100494.44
2023-05-09T09:42:59.419Z,100490.09
2023-05-09T09:45:04.086Z,100485.59
2023-05-09T09:47:11.613Z,100488.09
2023-05-09T09:49:16.413Z,100481.88
2023-05-09T09:51:20.060Z,100488.16
2023-05-09T09:53:23.794Z,100475.91
2023-05-09T09:55:26.603Z,100481.94
2023-05-09T09:57:36.035Z,100473.09
2023-05-09T09:59:38.772Z,100473.09
2023-05-09T10:02:03.410Z,100471.22
2023-05-09T10:04:16.740Z,100465.94
2023-05-09T10:06:19.678Z,100455.06
2023-05-09T10:08:22.488Z,100453.06
2023-05-09T10:10:28.129Z,100452.69
2023-05-09T10:12:34.252Z,100452.97
2023-05-09T10:14:38.130Z,100447.44
2023-05-09T10:16:44.322Z,100440.06
2023-05-09T10:18:47.725Z,100436.22
2023-05-09T10:20:52.348Z,100420.13
2023-05-09T10:22:56.778Z,100423.91
2023-05-09T10:25:04.261Z,100425.50
2023-05-09T10:27:12.746Z,100418.94
2023-05-09T10:29:22.783Z,100416.69
2023-05-09T10:31:27.833Z,100405.53
2023-05-09T10:33:35.268Z,100408.06
2023-05-09T10:35:41.666Z,100394.88
2023-05-09T10:37:46.360Z,100396.81
2023-05-09T10:39:53.029Z,100397.84
2023-05-09T10:41:56.627Z,100394.53
2023-05-09T10:43:59.846Z,100384.63
2023-05-09T10:46:03.118Z,100389.44
2023-05-09T10:48:08.781Z,100389.53
2023-05-09T10:50:13.751Z,100383.28
2023-05-09T10:52:16.856Z,100380.75
2023-05-09T10:54:31.072Z,100378.25
2023-05-09T10:56:35.696Z,100375.09
2023-05-09T10:58:40.753Z,100368.44
2023-05-09T11:00:44.118Z,100360.50
2023-05-09T11:03:07.597Z,100345.72
2023-05-09T11:05:15.400Z,100341.34
2023-05-09T11:07:26.245Z,100350.75
2023-05-09T11:09:33.703Z,100341.34
2023-05-09T11:11:55.169Z,100329.47
2023-05-09T11:13:59.285Z,100327.94
2023-05-09T11:16:12.590Z,100328.28
2023-05-09T11:18:16.189Z,100323.94
2023-05-09T11:20:19.495Z,100315.97
2023-05-09T11:22:44.557Z,100325.69
2023-05-09T11:24:51.432Z,100316.56
2023-05-09T11:26:54.244Z,100319.91
2023-05-09T11:29:00.480Z,100302.19
2023-05-09T11:31:11.540Z,100302.19
2023-05-09T11:33:23.892Z,100305.03
2023-05-09T11:35:27.776Z,100305.44
2023-05-09T11:37:32.335Z,100307.19
2023-05-09T11:39:34.958Z,100307.53
2023-05-09T11:41:44.023Z,100296.88
2023-05-09T11:43:46.925Z,100284.97
2023-05-09T11:45:49.892Z,100289.19
2023-05-09T11:47:53.924Z,100284.84
2023-05-09T11:49:56.815Z,100285.22
2023-05-09T11:52:00.743Z,100281.81
2023-05-09T11:54:03.725Z,100281.56
2023-05-09T11:56:07.162Z,100281.56
2023-05-09T11:58:11.430Z,100279.56
2023-05-09T12:00:16.926Z,100274.38
2023-05-09T12:02:19.801Z,100270.47
2023-05-09T12:04:22.625Z,100258.91
2023-05-09T12:06:26.086Z,100261.97
2023-05-09T12:08:30.190Z,100254.94
2023-05-09T12:10:33.446Z,100260.22
2023-05-09T12:12:36.885Z,100250.75
2023-05-09T12:14:42.156Z,100245.47
2023-05-09T12:16:46.901Z,100242.94
2023-05-09T12:18:51.490Z,100237.28
2023-05-09T12:20:54.772Z,100236.09
2023-05-09T12:22:57.592Z,100232.78
2023-05-09T12:25:02.623Z,100224.28
2023-05-09T12:27:07.878Z,100223.03
2023-05-09T12:29:10.746Z,100212.97
2023-05-09T12:31:15.528Z,100204.97
2023-05-09T12:33:19.047Z,100198.00
2023-05-09T12:35:23.498Z,100202.72
2023-05-09T12:37:26.313Z,100197.63
2023-05-09T12:39:29.078Z,100192.41
2023-05-09T12:41:39.102Z,100189.44
2023-05-09T12:43:49.429Z,100183.94
2023-05-09T12:45:53.567Z,100188.91
2023-05-09T12:47:58.455Z,100180.06
2023-05-09T12:50:02.999Z,100180.91
2023-05-09T12:52:06.681Z,100178.28
2023-05-09T12:54:12.015Z,100172.69
2023-05-09T12:56:16.423Z,100166.28
2023-05-09T12:58:20.312Z,100174.00
2023-05-09T13:00:23.344Z,100171.00
2023-05-09T13:02:27.149Z,100163.94
2023-05-09T13:04:31.401Z,100160.09
2023-05-09T13:06:35.901Z,100160.16
2023-05-09T13:08:39.104Z,100144.28
2023-05-09T13:10:42.038Z,100154.25
2023-05-09T13:12:48.049Z,100153.41
2023-05-09T13:14:51.030Z,100147.34
2023-05-09T13:16:53.997Z,100149.81
2023-05-09T13:18:56.931Z,100147.16
2023-05-09T13:21:01.071Z,100149.31
2023-05-09T13:23:04.026Z,100143.16
2023-05-09T13:25:07.729Z,100134.22
2023-05-09T13:27:10.994Z,100130.34
2023-05-09T13:29:13.861Z,100123.53
2023-05-09T13:31:16.912Z,100129.41
2023-05-09T13:33:25.886Z,100119.78
2023-05-09T13:35:29.631Z,100118.38
2023-05-09T13:37:33.756Z,100111.66
2023-05-09T13:39:36.616Z,100113.41
2023-05-09T13:41:39.501Z,100108.47
2023-05-09T13:43:42.618Z,100107.75
2023-05-09T13:45:45.509Z,100103.88
2023-05-09T13:47:48.391Z,100094.94
2023-05-09T13:49:52.128Z,100101.00
2023-05-09T13:51:55.172Z,100103.66
2023-05-09T13:53:59.356Z,100098.53
2023-05-09T13:56:02.175Z,100091.56
2023-05-09T13:58:05.077Z,100092.00
2023-05-09T14:00:09.247Z,100090.38
2023-05-09T14:02:15.228Z,100088.56
2023-05-09T14:04:18.073Z,100075.91
2023-05-09T14:06:20.874Z,100080.16
2023-05-09T14:08:24.017Z,100078.59
2023-05-09T14:10:28.158Z,100076.25
2023-05-09T14:12:31.103Z,100069.59
2023-05-09T14:14:33.957Z,100070.44
2023-05-09T14:16:36.885Z,100067.97
2023-05-09T14:18:39.755Z,100059.25
2023-05-09T14:20:42.741Z,100057.78
2023-05-09T14:22:46.478Z,100055.16
2023-05-09T14:24:49.352Z,100050.72
2023-05-09T14:26:53.494Z,100048.19
2023-05-09T14:28:56.393Z,100040.47
2023-05-09T14:30:59.238Z,100045.75
2023-05-09T14:33:02.248Z,100042.19
2023-05-09T14:35:05.652Z,100042.13
2023-05-09T14:37:13.510Z,100040.47
2023-05-09T14:39:16.293Z,100033.34
2023-05-09T14:41:21.370Z,100028.06
2023-05-09T14:43:25.565Z,100027.22
2023-05-09T14:45:28.471Z,100021.09
2023-05-09T14:47:31.271Z,100023.00
2023-05-09T14:49:34.266Z,100014.25
2023-05-09T14:51:37.663Z,100020.41
2023-05-09T14:53:41.756Z,100013.41
2023-05-09T14:55:44.759Z,100006.25
2023-05-09T14:57:47.690Z,100006.66
2023-05-09T14:59:52.057Z,99996.25
2023-05-09T15:01:54.826Z,99990.97
2023-05-09T15:03:57.694Z,99988.34
2023-05-09T15:06:00.533Z,99976.88
2023-05-09T15:08:03.718Z,99978.84
2023-05-09T15:10:07.101Z,99978.84
2023-05-09T15:12:11.116Z,99970.88
2023-05-09T15:14:13.932Z,99969.84
2023-05-09T15:16:18.374Z,99965.47
2023-05-09T15:18:23.234Z,99967.69
2023-05-09T15:20:25.964Z,99958.75
2023-05-09T15:22:33.512Z,99962.09
2023-05-09T15:24:36.308Z,99952.31
2023-05-09T15:26:39.123Z,99957.66
2023-05-09T15:28:44.154Z,99955.00
2023-05-09T15:30:47.026Z,99952.44
2023-05-09T15:32:51.312Z,99944.72
2023-05-09T15:34:54.073Z,99940.25
2023-05-09T15:36:56.988Z,99939.09
2023-05-09T15:38:59.783Z,99937.06
2023-05-09T15:41:02.978Z,99935.16
2023-05-09T15:43:08.325Z,99938.66
2023-05-09T15:45:13.888Z,99935.03
2023-05-09T15:47:16.796Z,99937.53
2023-05-09T15:49:21.395Z,99934.97
2023-05-09T15:51:24.211Z,99926.25
2023-05-09T15:53:27.592Z,99931.53
2023-05-09T15:55:32.079Z,99933.28
2023-05-09T15:57:34.691Z,99929.38
2023-05-09T15:59:37.479Z,99933.94
2023-05-09T16:01:40.418Z,99933.09
2023-05-09T16:03:43.287Z,99932.09
2023-05-09T16:05:47.558Z,99930.50
2023-05-09T16:07:53.057Z,99924.41
2023-05-09T16:09:55.950Z,99927.16
2023-05-09T16:11:58.711Z,99911.41
2023-05-09T16:14:01.518Z,99917.56
2023-05-09T16:16:04.987Z,99917.56
2023-05-09T16:18:07.766Z,99908.72
2023-05-09T16:20:13.597Z,99907.75
2023-05-09T16:22:19.313Z,99910.50
2023-05-09T16:24:21.943Z,99912.53
2023-05-09T16:26:24.802Z,99906.38
2023-05-09T16:28:27.998Z,99908.03
2023-05-09T16:30:30.840Z,99906.34
2023-05-09T16:32:33.640Z,99901.91
2023-05-09T16:34:36.792Z,99899.44
2023-05-09T16:36:39.557Z,99900.28
2023-05-09T16:38:43.672Z,99903.81
2023-05-09T16:40:46.467Z,99896.13
2023-05-09T16:42:49.346Z,99891.75
2023-05-09T16:44:52.066Z,99892.53
2023-05-09T16:46:54.825Z,99888.38
2023-05-09T16:48:57.683Z,99884.34
2023-05-09T16:51:00.489Z,99881.88
2023-05-09T16:53:04.620Z,99889.84
2023-05-09T16:55:09.705Z,99887.06
2023-05-09T16:57:12.536Z,99883.44
2023-05-09T16:59:15.447Z,99888.84
2023-05-09T17:01:18.366Z,99886.09
2023-05-09T17:03:21.186Z,99880.81
2023-05-09T17:05:24.051Z,99890.44
2023-05-09T17:07:27.309Z,99887.00
2023-05-09T17:09:30.246Z,99884.34
2023-05-09T17:11:34.424Z,99886.25
2023-05-09T17:13:37.281Z,99880.25
2023-05-09T17:15:40.117Z,99881.94
2023-05-09T17:17:43.523Z,99895.19
2023-05-09T17:19:46.539Z,99888.25
2023-05-09T17:21:49.429Z,99886.50
2023-05-09T17:23:53.775Z,99893.63
2023-05-09T17:25:56.542Z,99887.56
2023-05-09T17:28:00.652Z,99886.84
2023-05-09T17:30:03.947Z,99888.75
2023-05-09T17:32:07.309Z,99887.06
2023-05-09T17:34:10.504Z,99886.22
2023-05-09T17:36:13.364Z,99887.16
2023-05-09T17:38:16.258Z,99889.84
2023-05-09T17:40:19.443Z,99888.22
2023-05-09T17:42:22.258Z,99887.44
2023-05-09T17:44:27.184Z,99889.41
2023-05-09T17:46:30.011Z,99888.69
2023-05-09T17:48:32.870Z,99896.69
2023-05-09T17:50:35.637Z,99900.34
2023-05-09T17:52:38.445Z,99902.16
2023-05-09T17:54:41.385Z,99903.16
2023-05-09T17:56:44.140Z,99914.72
2023-05-09T17:58:47.828Z,99919.22
2023-05-09T18:00:55.001Z,99928.41
2023-05-09T18:03:00.478Z,99940.25
2023-05-09T18:05:03.552Z,99948.88
2023-05-09T18:07:06.347Z,99943.22
2023-05-09T18:09:09.139Z,99954.22
2023-05-09T18:11:12.549Z,99954.63
2023-05-09T18:13:15.524Z,99967.25
2023-05-09T18:15:18.349Z,99958.81
2023-05-09T18:17:22.618Z,99958.44
2023-05-09T18:19:25.413Z,99949.22
2023-05-09T18:21:28.644Z,99950.09
2023-05-09T18:23:31.813Z,99948.31
2023-05-09T18:25:34.925Z,99944.91
2023-05-09T18:27:37.758Z,99947.47
2023-05-09T18:29:40.616Z,99943.97
2023-05-09T18:31:43.588Z,99945.69
2023-05-09T18:33:47.774Z,99938.50
2023-05-09T18:35:50.745Z,99935.06
2023-05-09T18:37:53.716Z,99940.47
2023-05-09T18:39:56.568Z,99943.09
2023-05-09T18:41:59.311Z,99932.75
2023-05-09T18:44:02.111Z,99932.59
2023-05-09T18:46:05.099Z,99934.19
2023-05-09T18:48:08.275Z,99931.63
2023-05-09T18:50:13.634Z,99932.34
2023-05-09T18:52:18.798Z,99928.94
2023-05-09T18:54:21.579Z,99931.59
2023-05-09T18:56:25.502Z,99925.50
2023-05-09T18:58:29.076Z,99925.41
2023-05-09T19:00:32.084Z,99925.50
2023-05-09T19:02:34.917Z,99926.38
2023-05-09T19:04:38.015Z,99922.09
2023-05-09T19:06:42.797Z,99923.00
2023-05-09T19:08:47.899Z,99931.78
2023-05-09T19:10:50.695Z,99926.56
2023-05-09T19:12:53.521Z,99928.25
2023-05-09T19:14:56.491Z,99931.03
2023-05-09T19:16:59.378Z,99932.78
2023-05-09T19:19:02.301Z,99932.88
2023-05-09T19:21:05.283Z,99941.59
2023-05-09T19:23:09.388Z,99941.66
2023-05-09T19:25:12.249Z,99932.84
2023-05-09T19:27:15.058Z,99937.34
2023-05-09T19:29:17.828Z,99939.91
2023-05-09T19:31:21.204Z,99933.94
2023-05-09T19:33:24.964Z,99933.16
2023-05-09T19:35:27.712Z,99936.72
2023-05-09T19:37:30.519Z,99936.16
2023-05-09T19:39:34.709Z,99934.38
2023-05-09T19:41:37.675Z,99940.59
2023-05-09T19:43:40.882Z,99941.47
2023-05-09T19:45:43.715Z,99937.97
2023-05-09T19:47:46.666Z,99934.50
2023-05-09T19:49:49.546Z,99931.84
2023-05-09T19:51:52.336Z,99944.84
2023-05-09T19:53:55.199Z,99933.44
2023-05-09T19:55:59.351Z,99939.44
2023-05-09T19:58:02.150Z,99939.47
2023-05-09T20:00:06.905Z,99937.72
2023-05-09T20:02:09.771Z,99935.13
2023-05-09T20:04:12.570Z,99939.41
2023-05-09T20:06:15.401Z,99938.50
2023-05-09T20:08:18.151Z,99938.47
2023-05-09T20:10:21.284Z,99944.69
2023-05-09T20:12:27.309Z,99938.53
2023-05-09T20:14:31.704Z,99945.25
2023-05-09T20:16:34.523Z,99940.25
2023-05-09T20:18:37.525Z,99939.44
2023-05-09T20:20:40.313Z,99940.31
2023-05-09T20:22:43.167Z,99945.63
2023-05-09T20:24:46.237Z,99940.34
2023-05-09T20:26:49.157Z,99941.13
2023-05-09T20:28:54.387Z,99934.09
2023-05-09T20:30:57.454Z,99934.19
2023-05-09T20:33:01.122Z,99932.44
2023-05-09T20:35:04.332Z,99931.50
2023-05-09T20:37:07.684Z,99934.16
2023-05-09T20:39:11.799Z,99934.19
2023-05-09T20:41:14.724Z,99932.44
2023-05-09T20:43:17.543Z,99941.22
2023-05-09T20:45:21.808Z,99936.81
2023-05-09T20:47:24.652Z,99930.69
2023-05-09T20:49:27.785Z,99933.34
2023-05-09T20:51:31.343Z,99939.44
2023-05-09T20:53:35.001Z,99930.78
2023-05-09T20:55:37.945Z,99936.03
2023-05-09T20:57:40.825Z,99933.38
2023-05-09T20:59:44.069Z,99930.75
2023-05-09T21:01:48.183Z,99925.56
2023-05-09T21:03:51.583Z,99931.75
2023-05-09T21:05:54.651Z,99921.31
2023-05-09T21:07:57.430Z,99931.09
2023-05-09T21:10:00.286Z,99929.19
2023-05-09T21:12:04.343Z,99929.31
2023-05-09T21:14:08.209Z,99926.81
2023-05-09T21:16:11.165Z,99926.88
2023-05-09T21:18:15.325Z,99926.91
2023-05-09T21:20:18.691Z,99922.56
2023-05-09T21:22:21.532Z,99926.88
2023-05-09T21:24:24.429Z,99922.44
2023-05-09T21:26:27.240Z,99916.22
2023-05-09T21:28:30.084Z,99917.88
2023-05-09T21:30:32.933Z,99924.13
2023-05-09T21:32:35.800Z,99920.03
2023-05-09T21:34:39.930Z,99914.03
2023-05-09T21:36:42.779Z,99912.25
2023-05-09T21:38:45.634Z,99920.94
2023-05-09T21:40:48.418Z,99920.13
2023-05-09T21:42:51.211Z,99914.88
2023-05-09T21:44:54.063Z,99921.09
2023-05-09T21:46:56.949Z,99915.91
2023-05-09T21:48:59.799Z,99929.16
2023-05-09T21:51:04.716Z,99918.56
2023-05-09T21:53:07.596Z,99921.22
2023-05-09T21:55:10.838Z,99921.25
2023-05-09T21:57:13.610Z,99922.97
2023-05-09T21:59:17.668Z,99930.88
2023-05-09T22:01:20.537Z,99924.78
2023-05-09T22:03:23.562Z,99927.59
2023-05-09T22:05:26.499Z,99932.00
2023-05-09T22:07:30.683Z,99932.03
2023-05-09T22:09:33.661Z,99931.25
2023-05-09T22:11:36.683Z,99945.25
2023-05-09T22:13:39.474Z,99930.41
2023-05-09T22:15:42.967Z,99934.00
2023-05-09T22:17:45.878Z,99934.94
2023-05-09T22:19:48.707Z,99934.38
2023-05-09T22:21:51.574Z,99937.88
2023-05-09T22:23:55.824Z,99936.09
2023-05-09T22:25:59.276Z,99948.31
2023-05-09T22:28:03.429Z,99941.56
2023-05-09T22:30:09.038Z,99940.59
2023-05-09T22:32:12.350Z,99940.56
2023-05-09T22:34:15.696Z,99951.03
2023-05-09T22:36:18.879Z,99944.94
2023-05-09T22:38:21.737Z,99944.97
2023-05-09T22:40:26.412Z,99944.00
2023-05-09T22:42:29.283Z,99947.59
2023-05-09T22:44:32.462Z,99944.88
2023-05-09T22:46:35.278Z,99944.81
2023-05-09T22:48:38.053Z,99953.44
2023-05-09T22:50:41.054Z,99953.38
2023-05-09T22:52:43.859Z,99955.03
2023-05-09T22:54:46.705Z,99956.75
2023-05-09T22:56:50.900Z,99957.63
2023-05-09T22:58:53.746Z,99962.81
2023-05-09T23:00:56.563Z,99960.22
2023-05-09T23:03:00.316Z,99969.84
2023-05-09T23:05:03.496Z,99964.69
2023-05-09T23:07:06.294Z,99968.19
2023-05-09T23:09:09.189Z,99972.56
2023-05-09T23:11:12.044Z,99964.69
2023-05-09T23:13:16.193Z,99964.69
2023-05-09T23:15:19.258Z,99964.69
2023-05-09T23:17:22.910Z,99971.66
2023-05-09T23:19:25.738Z,99970.81
2023-05-09T23:21:29.053Z,99976.97
2023-05-09T23:23:31.860Z,99973.41
2023-05-09T23:25:34.764Z,99975.19
2023-05-09T23:27:40.387Z,99970.81
2023-05-09T23:29:44.549Z,99969.09
2023-05-09T23:31:47.473Z,99979.59
2023-05-09T23:33:50.289Z,99976.16
2023-05-09T23:35:53.109Z,99980.59
2023-05-09T23:37:55.850Z,99986.72
2023-05-09T23:39:58.966Z,99976.31
2023-05-09T23:42:01.792Z,99979.91
2023-05-09T23:44:04.704Z,99978.25
2023-05-09T23:46:09.119Z,99982.69
2023-05-09T23:48:12.084Z,99983.63
2023-05-09T23:50:15.110Z,99985.47
2023-05-09T23:52:18.056Z,99977.63
2023-05-09T23:54:21.300Z,99978.47